»·PEaware :: SKY412 KLVM-6S0

SKY412 :: KLVM-6S0

FLIGHT INFORMATION

Flight Status: Arrived
Operator:
Sky High Charters
More flights by this operator :: More flights under this callsign
Pilot: Christian E. (23964)
Aircraft: Diamond DA-62
(DA62)
More flights by this aircraft type
Origin: KLVM Mission
United States
Destination: 6S0 Big Timber
United States
More flights between these airports :: More routes between these airports
Route: LVM V2 SUBKY
File this flight plan on PilotEdge
Remarks: SCENARIO 7
Altitude:
(Current/Filed)
11,000ft
Speed:
(Current/Filed)
140kts
Departed: 07-Dec-20 11:25 AM
Arrived: 07-Dec-20 11:55 AM
Distance/Time
Traveled:
21nm/0:30
Distance/Time
To Go:
Arrived

Flight Plot

Page will automatically refresh every two minutes.

Flight plan parsing failed; only flown route is shown


Map Options




Map Legend


Flown Route
Filed Route
Departure Airport
Arrival Airport
Navaid (VOR, NDB)
Fix

Horizontal Profiles

Position Reports

Time Latitude Longitude Heading Altitude Ground
Speed
07-Dec-20 10:48 45.696970 -110.452742 226 4651ft 0kts
07-Dec-20 10:49 45.696970 -110.452742 226 4651ft 0kts
07-Dec-20 10:50 45.696970 -110.452742 226 4651ft 0kts
07-Dec-20 10:51 45.696970 -110.452742 226 4651ft 0kts
07-Dec-20 10:52 45.696970 -110.452742 226 4651ft 0kts
07-Dec-20 10:53 45.696970 -110.452742 226 4651ft 0kts
07-Dec-20 10:54 45.696970 -110.452742 226 4651ft 0kts
07-Dec-20 10:55 45.696970 -110.452742 226 4651ft 0kts
07-Dec-20 10:56 45.696970 -110.452742 226 4651ft 0kts
07-Dec-20 10:57 45.696970 -110.452742 226 4651ft 0kts
07-Dec-20 10:58 45.696970 -110.452742 226 4651ft 0kts
07-Dec-20 10:59 45.696970 -110.452742 226 4651ft 0kts
07-Dec-20 11:00 45.696970 -110.452742 226 4651ft 0kts
07-Dec-20 11:02 45.696970 -110.452742 226 4651ft 0kts
07-Dec-20 11:03 45.696970 -110.452742 226 4651ft 0kts
07-Dec-20 11:04 45.696970 -110.452742 226 4651ft 0kts
07-Dec-20 11:05 45.696970 -110.452742 226 4651ft 0kts
07-Dec-20 11:06 45.696970 -110.452742 226 4651ft 0kts
07-Dec-20 11:07 45.696970 -110.452742 226 4651ft 0kts
07-Dec-20 11:08 45.696970 -110.452742 226 4651ft 0kts
07-Dec-20 11:09 45.696970 -110.452742 226 4651ft 0kts
07-Dec-20 11:10 45.696970 -110.452742 226 4651ft 0kts
07-Dec-20 11:11 45.696970 -110.452742 226 4651ft 0kts
07-Dec-20 11:12 45.696970 -110.452742 226 4651ft 0kts
07-Dec-20 11:13 45.696970 -110.452742 226 4651ft 0kts
07-Dec-20 11:14 45.696970 -110.452742 226 4651ft 0kts
07-Dec-20 11:15 45.696970 -110.452742 226 4651ft 0kts
07-Dec-20 11:16 45.696948 -110.452774 225 4650ft 2kts
07-Dec-20 11:17 45.695857 -110.452053 145 4652ft 0kts
07-Dec-20 11:18 45.696096 -110.449550 54 4653ft 11kts
07-Dec-20 11:19 45.699497 -110.442710 54 4649ft 27kts
07-Dec-20 11:20 45.702796 -110.437673 76 4640ft 0kts
07-Dec-20 11:20 45.702796 -110.437669 69 4640ft 0kts
07-Dec-20 11:22 45.702796 -110.437669 69 4640ft 0kts
07-Dec-20 11:22 45.702796 -110.437669 69 4640ft 0kts
07-Dec-20 11:24 45.702284 -110.437014 235 4638ft 0kts
07-Dec-20 11:24 45.699643 -110.442340 236 4655ft 79kts
07-Dec-20 11:26 45.694380 -110.478217 282 5826ft 93kts
07-Dec-20 11:26 45.696022 -110.507799 256 6647ft 91kts
07-Dec-20 11:27 45.705988 -110.532148 9 7629ft 127kts
07-Dec-20 11:28 45.715761 -110.480787 103 8611ft 145kts
07-Dec-20 11:29 45.705985 -110.425819 85 9605ft 145kts
07-Dec-20 11:30 45.707047 -110.367930 85 10592ft 145kts
07-Dec-20 11:31 45.709365 -110.305984 80 11008ft 175kts
07-Dec-20 11:32 45.718333 -110.233364 68 10997ft 184kts
07-Dec-20 11:33 45.732466 -110.164006 68 10998ft 179kts
07-Dec-20 11:34 45.747923 -110.096287 61 10998ft 176kts
07-Dec-20 11:35 45.766537 -110.031283 61 10999ft 175kts
07-Dec-20 11:36 45.785081 -109.966525 61 10999ft 175kts
07-Dec-20 11:37 45.804428 -109.899744 61 10585ft 189kts
07-Dec-20 11:38 45.825741 -109.828780 61 9891ft 195kts
07-Dec-20 11:39 45.847846 -109.756935 61 9194ft 196kts
07-Dec-20 11:40 45.875521 -109.695259 38 8915ft 173kts
07-Dec-20 11:41 45.903492 -109.640344 69 8406ft 176kts
07-Dec-20 11:42 45.911874 -109.572576 122 7890ft 172kts
07-Dec-20 11:43 45.884160 -109.581519 252 7394ft 123kts
07-Dec-20 11:44 45.874136 -109.628430 255 6984ft 117kts
07-Dec-20 11:45 45.865512 -109.672932 255 7041ft 114kts
07-Dec-20 11:46 45.858662 -109.717882 263 7085ft 118kts
07-Dec-20 11:47 45.849224 -109.767759 255 6579ft 126kts
07-Dec-20 11:48 45.840776 -109.810987 255 6546ft 110kts
07-Dec-20 11:49 45.832379 -109.852811 247 6254ft 101kts
07-Dec-20 11:50 45.825318 -109.884318 258 5722ft 69kts
07-Dec-20 11:51 45.820193 -109.911172 250 5370ft 70kts
07-Dec-20 11:52 45.814450 -109.939923 254 4914ft 76kts
07-Dec-20 11:53 45.809006 -109.967515 251 4520ft 63kts
07-Dec-20 11:54 45.808251 -109.973627 343 4496ft 0kts
07-Dec-20 11:55 45.808886 -109.973712 250 4496ft 0kts
07-Dec-20 11:56 45.808886 -109.973712 250 4496ft 0kts
07-Dec-20 11:57 45.808886 -109.973712 250 4496ft 0kts

Navigation Log

Ident Type
Flight plan parsing failed, navigation log unavailable